Terminal Aerodrome Forecast
Issued by NWS Wilmington, OH

Current Version | Previous Version | Text Only | Print | Product List | Glossary Off
Versions: 1 2 3 4 5 6 7 8 9 10 11 12 13 14 15 16 17 18 19 20 21 22 23 24 25 26

000
FTUS41 KILN 260837 CCA
TAFCVG
TAF COR
KCVG 260837Z 2609/2712 20005KT P6SM VCSH SCT030 BKN100
     FM261000 20005KT P6SM VCSH BKN025
     FM261200 21007KT P6SM BKN015
     FM261800 22010KT P6SM BKN035
     FM270100 19003KT P6SM FEW040 SCT250=

USA.gov is the U.S. government's official web portal to all federal, state and local government web resources and services.